Time;durP1;ratioP1;P1;durP2;ratioP2;P2;SDS_P1;SDS_P2;PMS_P1;PMS_P2;Temp;Humidity;BMP_temperature;BMP_pressure;BME280_temperature;BME280_humidity;BME280_pressure;Samples;Min_cycle;Max_cycle;Signal;HPM_P1;HPM_P2
2022/05/23 00:01:36;;;;;;;8.10;5.30;;;;;;;;;;4995265;28;20033;-72
2022/05/23 00:04:02;;;;;;;7.38;5.68;;;;;;;;;;4997876;28;20048;-74
2022/05/23 00:06:28;;;;;;;7.15;5.53;;;;;;;;;;4987309;28;20022;-73
2022/05/23 00:08:54;;;;;;;7.63;5.47;;;;;;;;;;4993353;28;20506;-72
2022/05/23 00:11:21;;;;;;;7.05;5.65;;;;;;;;;;4997341;28;20020;-72
2022/05/23 00:13:47;;;;;;;7.72;5.03;;;;;;;;;;5002515;28;20153;-72
2022/05/23 00:16:21;;;;;;;11.98;5.75;;;;;;;;;;4998262;28;20032;-73
2022/05/23 00:18:48;;;;;;;8.52;5.90;;;;;;;;;;4994364;28;20033;-73
2022/05/23 00:21:15;;;;;;;9.63;6.47;;;;;;;;;;4998970;28;20080;-72
2022/05/23 00:23:41;;;;;;;7.32;5.60;;;;;;;;;;4994451;28;20049;-72
2022/05/23 00:26:07;;;;;;;9.45;6.25;;;;;;;;;;4994928;28;20487;-72
2022/05/23 00:28:34;;;;;;;6.80;5.13;;;;;;;;;;4993953;28;20080;-73
2022/05/23 00:31:00;;;;;;;5.28;4.78;;;;;;;;;;4989293;28;20038;-72
2022/05/23 00:36:11;;;;;;;6.80;5.05;;;;;;;;;;4993591;28;20118;-72
2022/05/23 00:38:37;;;;;;;8.30;6.00;;;;;;;;;;4991028;28;20034;-72
2022/05/23 00:43:59;;;;;;;9.68;6.28;;;;;;;;;;4989583;28;20414;-71
2022/05/23 00:46:25;;;;;;;;;;;;;;;;;;4992954;28;20514;-71
2022/05/23 00:48:52;;;;;;;8.90;6.30;;;;;;;;;;4989607;28;20000;-71
2022/05/23 00:51:18;;;;;;;9.35;6.07;;;;;;;;;;4989868;28;20467;-73
2022/05/23 00:53:50;;;;;;;11.68;7.03;;;;;;;;;;4994053;28;20041;-70
2022/05/23 00:56:16;;;;;;;;;;;;;;;;;;4990295;28;20038;-71
2022/05/23 00:59:02;;;;;;;8.80;6.80;;;;;;;;;;4993197;28;19915;-71
2022/05/23 01:01:30;;;;;;;10.65;6.90;;;;;;;;;;4991400;28;20117;-71
2022/05/23 01:03:57;;;;;;;11.48;7.30;;;;;;;;;;4990840;28;20057;-71
2022/05/23 01:06:23;;;;;;;10.40;7.18;;;;;;;;;;4995628;28;20030;-74
2022/05/23 01:08:51;;;;;;;10.57;7.18;;;;;;;;;;4994313;28;20141;-73
2022/05/23 01:11:18;;;;;;;10.25;7.00;;;;;;;;;;4990151;28;20609;-71
2022/05/23 01:13:44;;;;;;;10.27;6.80;;;;;;;;;;4989594;28;20014;-71
2022/05/23 01:16:11;;;;;;;11.40;7.50;;;;;;;;;;4996020;28;20034;-70
2022/05/23 01:18:37;;;;;;;8.80;7.07;;;;;;;;;;4995531;28;20109;-72
2022/05/23 01:21:04;;;;;;;8.73;7.30;;;;;;;;;;4996798;28;20052;-71
2022/05/23 01:23:39;;;;;;;9.70;6.88;;;;;;;;;;4987821;28;20038;-71
2022/05/23 01:26:05;;;;;;;10.07;7.20;;;;;;;;;;4989263;28;20413;-71
2022/05/23 01:28:33;;;;;;;10.13;7.65;;;;;;;;;;4988201;28;20387;-71
2022/05/23 01:30:59;;;;;;;10.55;7.30;;;;;;;;;;4992039;28;20037;-71
2022/05/23 01:33:25;;;;;;;7.85;6.50;;;;;;;;;;4996113;28;20740;-71
2022/05/23 01:35:51;;;;;;;9.55;6.70;;;;;;;;;;4991921;28;20089;-71
2022/05/23 01:38:17;;;;;;;7.82;6.85;;;;;;;;;;4994865;28;20036;-71
2022/05/23 01:40:44;;;;;;;8.45;6.00;;;;;;;;;;4992865;28;20120;-72
2022/05/23 01:43:11;;;;;;;7.45;5.95;;;;;;;;;;4996921;28;20033;-71
2022/05/23 01:45:38;;;;;;;9.43;5.85;;;;;;;;;;4995527;28;20050;-72
2022/05/23 01:48:06;;;;;;;6.78;5.43;;;;;;;;;;4998580;28;20057;-74
2022/05/23 01:50:32;;;;;;;7.38;5.07;;;;;;;;;;4992282;28;20384;-71
2022/05/23 01:52:59;;;;;;;7.10;4.80;;;;;;;;;;4992211;28;20046;-72
2022/05/23 01:55:25;;;;;;;7.28;5.18;;;;;;;;;;4999410;28;20120;-71
2022/05/23 01:57:51;;;;;;;6.28;4.70;;;;;;;;;;4992042;28;20131;-72
2022/05/23 02:03:03;;;;;;;5.85;4.63;;;;;;;;;;4993677;28;20115;-71
2022/05/23 02:05:30;;;;;;;6.80;5.32;;;;;;;;;;4993650;28;20035;-71
2022/05/23 02:07:56;;;;;;;5.57;4.20;;;;;;;;;;4992814;28;20040;-71
2022/05/23 02:10:23;;;;;;;7.10;5.22;;;;;;;;;;4995719;28;20037;-71
2022/05/23 02:12:49;;;;;;;4.88;4.28;;;;;;;;;;4994298;28;20022;-74
2022/05/23 02:15:16;;;;;;;8.07;4.65;;;;;;;;;;4990172;28;20057;-71
2022/05/23 02:17:42;;;;;;;5.47;4.32;;;;;;;;;;4994486;28;20037;-71
2022/05/23 02:20:09;;;;;;;7.85;5.55;;;;;;;;;;4996727;28;20030;-71
2022/05/23 02:22:36;;;;;;;5.93;4.97;;;;;;;;;;4995671;28;20029;-72
2022/05/23 02:25:03;;;;;;;6.22;5.38;;;;;;;;;;4994460;28;20502;-71
2022/05/23 02:27:32;;;;;;;7.13;5.05;;;;;;;;;;4993473;28;20026;-73
2022/05/23 02:29:59;;;;;;;7.22;5.53;;;;;;;;;;4987035;28;20098;-71
2022/05/23 02:32:25;;;;;;;7.78;6.28;;;;;;;;;;4996097;28;20030;-71
2022/05/23 02:34:51;;;;;;;9.25;5.60;;;;;;;;;;4995740;28;20113;-72
2022/05/23 02:37:17;;;;;;;7.15;5.40;;;;;;;;;;4992363;28;20084;-71
2022/05/23 02:39:43;;;;;;;11.48;5.70;;;;;;;;;;4996005;28;20109;-73
2022/05/23 02:42:09;;;;;;;6.43;5.60;;;;;;;;;;4992599;28;20029;-72
2022/05/23 02:44:36;;;;;;;6.72;6.00;;;;;;;;;;4998331;28;20513;-71
2022/05/23 02:47:02;;;;;;;11.95;6.65;;;;;;;;;;4992753;28;20498;-73
2022/05/23 02:49:29;;;;;;;7.53;5.20;;;;;;;;;;4998158;28;20041;-71
2022/05/23 02:51:55;;;;;;;8.88;5.65;;;;;;;;;;4993187;28;20026;-74
2022/05/23 02:54:21;;;;;;;8.27;4.85;;;;;;;;;;4995848;28;20030;-72
2022/05/23 02:56:47;;;;;;;7.68;4.30;;;;;;;;;;4998735;28;20026;-72
2022/05/23 02:59:13;;;;;;;5.78;4.40;;;;;;;;;;4996687;28;20533;-72
2022/05/23 03:04:25;;;;;;;5.20;3.78;;;;;;;;;;4998265;28;20112;-72
2022/05/23 03:06:51;;;;;;;7.60;4.15;;;;;;;;;;4995489;28;20022;-71
2022/05/23 03:09:17;;;;;;;5.93;4.28;;;;;;;;;;4996328;28;20056;-72
2022/05/23 03:11:43;;;;;;;5.30;3.90;;;;;;;;;;4993737;28;20113;-72
2022/05/23 03:14:10;;;;;;;5.05;3.80;;;;;;;;;;4994875;28;20392;-71
2022/05/23 03:16:36;;;;;;;5.88;4.30;;;;;;;;;;4997801;28;20525;-72
2022/05/23 03:19:02;;;;;;;5.25;3.83;;;;;;;;;;4998123;28;20536;-75
2022/05/23 03:27:00;;;;;;;5.50;4.63;;;;;;;;;;4990849;28;20434;-71
2022/05/23 03:29:30;;;;;;;6.18;3.75;;;;;;;;;;4983386;28;20113;-71
2022/05/23 03:31:56;;;;;;;7.13;4.00;;;;;;;;;;4990803;28;20022;-72
2022/05/23 03:34:23;;;;;;;8.02;4.40;;;;;;;;;;4983077;28;20516;-71
2022/05/23 03:36:49;;;;;;;6.90;4.15;;;;;;;;;;4983052;28;20026;-71
2022/05/23 03:39:16;;;;;;;6.72;4.10;;;;;;;;;;4980339;28;20415;-71
2022/05/23 03:41:42;;;;;;;7.13;4.60;;;;;;;;;;4982996;28;20045;-72
2022/05/23 03:44:08;;;;;;;6.35;4.15;;;;;;;;;;4983384;28;20034;-71
2022/05/23 03:46:35;;;;;;;6.22;3.95;;;;;;;;;;4981428;28;20755;-72
2022/05/23 03:49:02;;;;;;;5.43;4.68;;;;;;;;;;4990724;28;20026;-71
2022/05/23 03:51:28;;;;;;;9.05;4.97;;;;;;;;;;4983151;28;20505;-71
2022/05/23 03:53:55;;;;;;;6.10;4.40;;;;;;;;;;4982999;28;20084;-72
2022/05/23 03:56:21;;;;;;;9.27;4.80;;;;;;;;;;4980845;28;20256;-71
2022/05/23 03:58:47;;;;;;;6.65;4.65;;;;;;;;;;4982563;28;20288;-71
2022/05/23 04:01:15;;;;;;;7.53;4.53;;;;;;;;;;4982939;28;20101;-72
2022/05/23 04:03:41;;;;;;;5.85;3.97;;;;;;;;;;4982776;28;20062;-71
2022/05/23 04:06:08;;;;;;;7.30;4.78;;;;;;;;;;4981289;28;20112;-71
2022/05/23 04:08:35;;;;;;;6.00;4.97;;;;;;;;;;4982690;28;20082;-72
2022/05/23 04:11:02;;;;;;;6.00;3.97;;;;;;;;;;4982437;28;20029;-71
2022/05/23 04:13:29;;;;;;;10.57;4.80;;;;;;;;;;4982468;28;20026;-71
2022/05/23 04:15:55;;;;;;;6.35;4.97;;;;;;;;;;4981760;28;20027;-74
2022/05/23 04:18:21;;;;;;;9.23;5.55;;;;;;;;;;4982696;28;20109;-72
2022/05/23 04:20:48;;;;;;;7.60;5.60;;;;;;;;;;4982575;28;20675;-72
2022/05/23 04:23:15;;;;;;;8.05;5.82;;;;;;;;;;4982067;28;20150;-72
2022/05/23 04:25:41;;;;;;;9.77;6.82;;;;;;;;;;4990823;28;20083;-72
2022/05/23 04:28:08;;;;;;;8.95;7.40;;;;;;;;;;4991141;28;20026;-72
2022/05/23 04:30:35;;;;;;;10.35;7.05;;;;;;;;;;4980907;28;20081;-73
2022/05/23 04:35:46;;;;;;;12.05;6.68;;;;;;;;;;4980507;28;20088;-74
2022/05/23 04:38:13;;;;;;;8.15;6.40;;;;;;;;;;4978856;28;20042;-72
2022/05/23 04:40:39;;;;;;;13.75;5.97;;;;;;;;;;4980217;28;20065;-73
2022/05/23 04:43:05;;;;;;;7.47;5.60;;;;;;;;;;4979682;28;20034;-73
2022/05/23 04:45:32;;;;;;;16.88;7.15;;;;;;;;;;4980160;28;20050;-73
2022/05/23 04:50:42;;;;;;;11.43;6.68;;;;;;;;;;4978956;28;20052;-73
2022/05/23 04:53:09;;;;;;;7.85;6.63;;;;;;;;;;4979752;28;20035;-71
2022/05/23 04:55:37;;;;;;;8.05;6.35;;;;;;;;;;4982487;28;20038;-71
2022/05/23 04:58:03;;;;;;;8.90;6.00;;;;;;;;;;4988603;28;20033;-71
2022/05/23 05:00:29;;;;;;;8.52;6.47;;;;;;;;;;4992490;28;20026;-73
2022/05/23 05:02:59;;;;;;;6.50;5.80;;;;;;;;;;4989849;28;20092;-78
2022/05/23 05:05:27;;;;;;;9.20;7.18;;;;;;;;;;4986209;28;20029;-74
2022/05/23 05:07:54;;;;;;;10.00;6.10;;;;;;;;;;4994106;28;20109;-73
2022/05/23 05:10:22;;;;;;;7.88;6.20;;;;;;;;;;4991243;28;20038;-73
2022/05/23 05:12:48;;;;;;;9.35;6.63;;;;;;;;;;4981278;28;20517;-73
2022/05/23 05:15:14;;;;;;;7.13;6.43;;;;;;;;;;4990376;28;20034;-73
2022/05/23 05:17:41;;;;;;;8.10;5.90;;;;;;;;;;4985045;28;20026;-72
2022/05/23 05:20:08;;;;;;;8.55;5.82;;;;;;;;;;4985188;28;20046;-72
2022/05/23 05:22:35;;;;;;;13.52;6.28;;;;;;;;;;4990047;28;20033;-73
2022/05/23 05:25:02;;;;;;;10.82;6.63;;;;;;;;;;4992933;28;20129;-72
2022/05/23 05:27:29;;;;;;;7.78;5.97;;;;;;;;;;4987472;28;20034;-73
2022/05/23 05:29:55;;;;;;;7.55;5.88;;;;;;;;;;4990374;28;20026;-74
2022/05/23 05:32:27;;;;;;;10.50;6.70;;;;;;;;;;4985101;28;20046;-73
2022/05/23 05:34:58;;;;;;;16.00;7.45;;;;;;;;;;5000930;28;20056;-73
2022/05/23 05:37:35;;;;;;;8.33;5.70;;;;;;;;;;4993462;28;20029;-72
2022/05/23 05:40:04;;;;;;;9.52;6.28;;;;;;;;;;4998098;28;20022;-72
2022/05/23 05:42:36;;;;;;;9.68;6.30;;;;;;;;;;4989679;28;20026;-72
2022/05/23 05:45:05;;;;;;;8.65;6.15;;;;;;;;;;4997759;28;20045;-74
2022/05/23 05:47:33;;;;;;;11.63;5.80;;;;;;;;;;4982378;28;20110;-73
2022/05/23 05:50:01;;;;;;;8.07;5.72;;;;;;;;;;4991965;28;20033;-74
2022/05/23 05:52:29;;;;;;;7.50;5.78;;;;;;;;;;4983326;28;20057;-76
2022/05/23 05:54:56;;;;;;;7.88;5.70;;;;;;;;;;4978178;28;20026;-74
2022/05/23 05:57:23;;;;;;;9.93;5.55;;;;;;;;;;4981826;28;20040;-73
2022/05/23 05:59:49;;;;;;;9.95;5.10;;;;;;;;;;4980807;28;20027;-76
2022/05/23 06:02:16;;;;;;;8.80;5.97;;;;;;;;;;4980641;28;20390;-74
2022/05/23 06:04:42;;;;;;;7.05;4.97;;;;;;;;;;4980731;28;20042;-73
2022/05/23 06:12:37;;;;;;;10.68;6.05;;;;;;;;;;4980974;28;20037;-74
2022/05/23 06:15:04;;;;;;;11.55;6.93;;;;;;;;;;4996312;28;20036;-74
2022/05/23 06:17:30;;;;;;;7.93;6.47;;;;;;;;;;5001692;28;20022;-73
2022/05/23 06:19:56;;;;;;;15.00;6.93;;;;;;;;;;4990197;28;20116;-73
2022/05/23 06:22:22;;;;;;;11.20;7.07;;;;;;;;;;4997275;28;20072;-73
2022/05/23 06:24:51;;;;;;;10.30;6.80;;;;;;;;;;5000843;28;20032;-73
2022/05/23 06:27:18;;;;;;;8.75;6.03;;;;;;;;;;5001470;28;20365;-72
2022/05/23 06:29:44;;;;;;;11.50;5.65;;;;;;;;;;5003220;28;20036;-72
2022/05/23 06:32:10;;;;;;;8.65;6.10;;;;;;;;;;4991467;28;20026;-73
2022/05/23 06:34:37;;;;;;;8.63;6.65;;;;;;;;;;5001193;28;20054;-72
2022/05/23 06:37:03;;;;;;;8.32;6.88;;;;;;;;;;5001792;28;20466;-72
2022/05/23 06:39:29;;;;;;;11.38;7.72;;;;;;;;;;4987298;28;20042;-73
2022/05/23 06:41:55;;;;;;;12.27;7.85;;;;;;;;;;4990135;28;20022;-72
2022/05/23 06:44:22;;;;;;;16.98;8.10;;;;;;;;;;4991382;28;20542;-72
2022/05/23 06:46:48;;;;;;;12.85;8.77;;;;;;;;;;4998888;28;20054;-72
2022/05/23 06:49:15;;;;;;;10.48;8.00;;;;;;;;;;4996040;28;20026;-72
2022/05/23 06:51:42;;;;;;;11.63;7.63;;;;;;;;;;4985883;28;20109;-72
2022/05/23 06:54:08;;;;;;;8.40;7.40;;;;;;;;;;4994198;28;20121;-73
2022/05/23 06:56:34;;;;;;;11.02;6.32;;;;;;;;;;4981063;28;20025;-73
2022/05/23 06:59:01;;;;;;;8.65;4.95;;;;;;;;;;4997826;28;20128;-73
2022/05/23 07:01:27;;;;;;;7.85;4.45;;;;;;;;;;4996905;28;20486;-73
2022/05/23 07:03:54;;;;;;;6.55;4.20;;;;;;;;;;4982771;28;20630;-73
2022/05/23 07:14:34;;;;;;;7.22;4.55;;;;;;;;;;4981868;28;20045;-72
2022/05/23 07:17:00;;;;;;;6.30;5.13;;;;;;;;;;4985223;28;20033;-73
2022/05/23 07:19:27;;;;;;;8.30;5.22;;;;;;;;;;4995631;28;20127;-71
2022/05/23 07:21:56;;;;;;;10.02;5.30;;;;;;;;;;4993963;28;20030;-74
2022/05/23 07:25:09;;;;;;;8.05;4.90;;;;;;;;;;5086012;27;1547424;-75
2022/05/23 07:27:35;;;;;;;8.52;5.15;;;;;;;;;;5115587;27;20035;-74
2022/05/23 07:30:02;;;;;;;20.38;5.95;;;;;;;;;;5099752;28;20267;-73
2022/05/23 07:32:29;;;;;;;5.25;4.75;;;;;;;;;;5109798;28;20027;-73
2022/05/23 07:34:56;;;;;;;5.40;4.25;;;;;;;;;;5097249;28;20028;-73
2022/05/23 07:37:22;;;;;;;6.07;4.30;;;;;;;;;;5095981;28;20040;-75
2022/05/23 07:39:48;;;;;;;6.93;4.13;;;;;;;;;;5098212;28;20034;-74
2022/05/23 07:42:14;;;;;;;6.57;5.18;;;;;;;;;;5112369;28;20108;-74
2022/05/23 07:44:40;;;;;;;5.72;4.45;;;;;;;;;;5099089;28;20273;-74
2022/05/23 07:47:06;;;;;;;6.55;4.43;;;;;;;;;;5099545;28;20020;-74
2022/05/23 07:49:34;;;;;;;6.25;4.28;;;;;;;;;;5095976;28;20028;-74
2022/05/23 07:52:02;;;;;;;6.57;4.70;;;;;;;;;;5111042;27;20020;-74
2022/05/23 08:02:43;;;;;;;6.30;4.28;;;;;;;;;;5077100;28;20052;-73
2022/05/23 08:05:09;;;;;;;7.40;4.28;;;;;;;;;;5083008;28;20040;-74
2022/05/23 08:07:36;;;;;;;12.02;4.22;;;;;;;;;;5082815;28;20069;-74
2022/05/23 08:10:02;;;;;;;7.90;4.50;;;;;;;;;;5087590;28;20116;-74
2022/05/23 08:12:29;;;;;;;4.72;4.25;;;;;;;;;;5090571;28;20020;-74
2022/05/23 08:14:56;;;;;;;7.28;4.25;;;;;;;;;;5076061;28;20025;-74
2022/05/23 08:17:22;;;;;;;4.45;4.05;;;;;;;;;;5079030;28;20025;-75
2022/05/23 08:19:49;;;;;;;4.95;4.45;;;;;;;;;;5093247;28;20032;-74
2022/05/23 08:22:16;;;;;;;5.15;4.15;;;;;;;;;;5095636;28;20024;-75
2022/05/23 08:24:42;;;;;;;7.90;4.45;;;;;;;;;;5091518;28;20054;-74
2022/05/23 08:27:08;;;;;;;10.15;4.97;;;;;;;;;;5088971;28;20027;-74
2022/05/23 08:29:36;;;;;;;5.35;4.22;;;;;;;;;;5081309;28;20085;-74
2022/05/23 08:32:03;;;;;;;6.00;4.38;;;;;;;;;;5075661;28;20051;-75
2022/05/23 08:34:31;;;;;;;11.45;4.05;;;;;;;;;;5084162;28;20710;-74
2022/05/23 08:36:58;;;;;;;5.97;4.50;;;;;;;;;;5079399;28;20750;-75
2022/05/23 08:39:25;;;;;;;6.22;4.50;;;;;;;;;;5078187;28;20031;-74
2022/05/23 08:41:52;;;;;;;7.68;4.90;;;;;;;;;;5081566;28;20088;-74
2022/05/23 08:44:35;;;;;;;7.78;4.75;;;;;;;;;;5072052;28;20139;-74
2022/05/23 08:47:30;;;;;;;9.27;4.85;;;;;;;;;;5079648;28;20036;-75
2022/05/23 08:50:09;;;;;;;7.00;3.90;;;;;;;;;;5061722;28;20412;-74
2022/05/23 08:52:38;;;;;;;10.60;4.65;;;;;;;;;;5062915;28;20067;-74
2022/05/23 08:55:10;;;;;;;8.65;5.03;;;;;;;;;;5060005;28;20524;-74
2022/05/23 08:58:00;;;;;;;10.50;4.85;;;;;;;;;;5062914;28;20097;-74
2022/05/23 09:00:38;;;;;;;6.97;4.43;;;;;;;;;;5050340;28;20337;-74
2022/05/23 09:03:22;;;;;;;6.70;4.28;;;;;;;;;;5067704;28;20103;-76
2022/05/23 09:06:08;;;;;;;6.22;4.15;;;;;;;;;;5068417;28;20035;-74
2022/05/23 09:08:37;;;;;;;8.10;4.20;;;;;;;;;;5066756;28;20028;-74
2022/05/23 09:11:10;;;;;;;5.40;4.13;;;;;;;;;;5075564;28;20042;-74
2022/05/23 09:13:38;;;;;;;6.88;4.18;;;;;;;;;;5072013;28;20424;-75
2022/05/23 09:16:05;;;;;;;5.60;4.60;;;;;;;;;;5067258;28;20035;-74
2022/05/23 09:18:42;;;;;;;5.30;3.70;;;;;;;;;;5075127;28;20391;-74
2022/05/23 09:21:09;;;;;;;5.22;3.95;;;;;;;;;;5068819;28;20031;-74
2022/05/23 09:23:39;;;;;;;5.03;4.15;;;;;;;;;;5072697;28;20048;-76
2022/05/23 09:26:11;;;;;;;5.15;4.60;;;;;;;;;;5070884;28;20028;-80
2022/05/23 09:28:38;;;;;;;5.60;3.75;;;;;;;;;;5077333;28;20036;-79
2022/05/23 09:31:05;;;;;;;4.82;3.40;;;;;;;;;;5082204;28;20034;-75
2022/05/23 09:33:31;;;;;;;7.65;3.85;;;;;;;;;;5064177;28;20033;-74
2022/05/23 09:36:11;;;;;;;5.22;4.18;;;;;;;;;;5060985;28;20100;-74
2022/05/23 09:39:00;;;;;;;5.60;3.85;;;;;;;;;;5081203;28;20052;-75
2022/05/23 09:49:54;;;;;;;4.97;3.67;;;;;;;;;;5068862;28;20039;-74
2022/05/23 09:52:26;;;;;;;5.72;4.15;;;;;;;;;;5079169;28;20694;-74
2022/05/23 09:55:02;;;;;;;5.00;3.95;;;;;;;;;;5069873;28;20035;-74
2022/05/23 09:57:34;;;;;;;6.55;4.28;;;;;;;;;;5071279;28;20493;-74
2022/05/23 10:00:05;;;;;;;8.68;4.75;;;;;;;;;;5063356;28;20040;-74
2022/05/23 10:02:37;;;;;;;8.77;4.30;;;;;;;;;;5060807;28;20035;-74
2022/05/23 10:05:04;;;;;;;5.38;4.07;;;;;;;;;;5070134;28;20297;-74
2022/05/23 10:07:38;;;;;;;7.78;5.00;;;;;;;;;;5075696;28;20019;-74
2022/05/23 10:10:04;;;;;;;8.60;4.90;;;;;;;;;;5071255;28;20029;-75
2022/05/23 10:12:32;;;;;;;8.07;4.53;;;;;;;;;;5073417;28;20031;-74
2022/05/23 10:15:14;;;;;;;5.97;4.05;;;;;;;;;;5079832;28;20027;-75
2022/05/23 10:17:41;;;;;;;5.97;4.93;;;;;;;;;;5069724;28;20054;-75
2022/05/23 10:20:20;;;;;;;7.07;4.30;;;;;;;;;;5059681;28;20059;-75
2022/05/23 10:22:57;;;;;;;5.55;4.10;;;;;;;;;;5059473;28;20419;-75
2022/05/23 10:25:25;;;;;;;7.10;4.32;;;;;;;;;;5075240;28;20039;-75
2022/05/23 10:28:03;;;;;;;5.75;3.92;;;;;;;;;;5080191;28;20105;-75
2022/05/23 10:30:33;;;;;;;5.15;4.10;;;;;;;;;;5069447;28;20024;-76
2022/05/23 10:33:09;;;;;;;6.70;4.40;;;;;;;;;;5062153;28;20032;-75
2022/05/23 10:35:36;;;;;;;5.25;4.00;;;;;;;;;;5063851;28;20086;-75
2022/05/23 10:44:04;;;;;;;5.15;3.75;;;;;;;;;;5063015;28;20066;-75
2022/05/23 10:46:33;;;;;;;7.57;4.18;;;;;;;;;;5079411;28;20167;-75
2022/05/23 10:49:15;;;;;;;6.63;4.22;;;;;;;;;;5079773;28;20535;-75
2022/05/23 10:51:56;;;;;;;7.35;5.30;;;;;;;;;;5069448;28;20036;-75
2022/05/23 10:54:33;;;;;;;8.00;4.63;;;;;;;;;;5066434;28;20138;-74
2022/05/23 10:57:14;;;;;;;9.45;5.32;;;;;;;;;;5072126;28;20659;-74
2022/05/23 10:59:58;;;;;;;7.07;4.35;;;;;;;;;;5063732;28;20039;-74
2022/05/23 11:02:43;;;;;;;6.50;4.63;;;;;;;;;;5067664;28;20021;-74
2022/05/23 11:05:09;;;;;;;7.00;4.78;;;;;;;;;;5074407;28;20036;-74
2022/05/23 11:07:44;;;;;;;6.90;4.47;;;;;;;;;;5078646;28;20042;-74
2022/05/23 11:10:24;;;;;;;7.68;4.70;;;;;;;;;;5078491;28;20647;-74
2022/05/23 11:13:00;;;;;;;6.60;4.22;;;;;;;;;;5079255;28;20035;-75
2022/05/23 11:15:32;;;;;;;5.10;3.83;;;;;;;;;;5077923;28;20506;-75
2022/05/23 11:18:22;;;;;;;8.07;4.00;;;;;;;;;;5079645;28;20059;-74
2022/05/23 11:20:50;;;;;;;8.80;4.90;;;;;;;;;;5069025;28;20253;-74
2022/05/23 11:23:28;;;;;;;11.57;4.60;;;;;;;;;;5077838;28;20024;-75
2022/05/23 11:25:59;;;;;;;6.32;4.38;;;;;;;;;;5079427;28;20031;-74
2022/05/23 11:34:32;;;;;;;6.38;3.47;;;;;;;;;;5079529;28;20521;-75
2022/05/23 11:37:06;;;;;;;4.68;4.03;;;;;;;;;;5077300;28;20028;-75
2022/05/23 11:39:50;;;;;;;7.82;3.92;;;;;;;;;;5071836;28;20065;-75
2022/05/23 11:42:18;;;;;;;5.10;3.63;;;;;;;;;;5058964;28;20024;-75
2022/05/23 11:44:44;;;;;;;3.85;3.30;;;;;;;;;;5058813;28;20496;-75
2022/05/23 11:47:25;;;;;;;3.92;3.53;;;;;;;;;;5058982;28;20025;-75
2022/05/23 11:50:00;;;;;;;5.60;3.67;;;;;;;;;;5058489;28;20035;-75
2022/05/23 11:52:26;;;;;;;5.63;3.53;;;;;;;;;;5065932;28;20036;-74
2022/05/23 11:54:52;;;;;;;5.97;3.65;;;;;;;;;;5079108;28;20054;-75
2022/05/23 11:57:35;;;;;;;4.93;3.88;;;;;;;;;;5078498;28;20107;-75
2022/05/23 12:00:04;;;;;;;4.30;3.60;;;;;;;;;;5079000;28;20530;-75
2022/05/23 12:02:33;;;;;;;4.45;3.58;;;;;;;;;;5074098;28;20635;-75
2022/05/23 12:04:59;;;;;;;4.55;3.80;;;;;;;;;;5058464;28;20491;-75
2022/05/23 12:07:31;;;;;;;5.72;3.70;;;;;;;;;;5058667;28;20037;-75
2022/05/23 12:10:16;;;;;;;4.93;4.20;;;;;;;;;;5059275;28;20039;-75
2022/05/23 12:12:47;;;;;;;6.18;4.43;;;;;;;;;;5066735;28;20020;-81
2022/05/23 12:15:34;;;;;;;7.22;3.70;;;;;;;;;;5081857;28;20020;-81
2022/05/23 12:18:01;;;;;;;6.72;4.10;;;;;;;;;;5062231;28;20130;-80
2022/05/23 12:20:28;;;;;;;4.75;3.97;;;;;;;;;;5063399;28;20064;-84
2022/05/23 12:23:09;;;;;;;6.43;3.80;;;;;;;;;;5075063;28;20043;-80
2022/05/23 12:25:35;;;;;;;4.00;3.60;;;;;;;;;;5084774;28;20044;-74
2022/05/23 12:28:14;;;;;;;6.35;3.47;;;;;;;;;;5082857;28;20025;-75
2022/05/23 12:30:44;;;;;;;6.10;3.72;;;;;;;;;;5082605;28;20021;-75
2022/05/23 12:33:21;;;;;;;5.43;4.07;;;;;;;;;;5071879;28;20246;-74
2022/05/23 12:35:57;;;;;;;4.35;3.50;;;;;;;;;;5079415;28;20031;-75
2022/05/23 12:38:36;;;;;;;9.13;4.90;;;;;;;;;;5062567;28;20107;-74
2022/05/23 12:41:23;;;;;;;5.20;3.58;;;;;;;;;;5064449;28;20685;-76
2022/05/23 12:44:09;;;;;;;6.38;3.80;;;;;;;;;;5083536;28;20035;-75
2022/05/23 12:46:48;;;;;;;8.02;3.85;;;;;;;;;;5039247;28;20039;-75
2022/05/23 12:49:24;;;;;;;6.63;3.55;;;;;;;;;;5066767;28;20178;-75
2022/05/23 12:51:59;;;;;;;7.45;3.63;;;;;;;;;;5070263;28;20032;-75
2022/05/23 12:54:58;;;;;;;6.40;3.92;;;;;;;;;;5077128;28;20507;-75
2022/05/23 12:57:42;;;;;;;4.18;3.55;;;;;;;;;;5029801;28;20035;-75
2022/05/23 13:00:14;;;;;;;3.95;3.47;;;;;;;;;;5078793;28;20035;-74
2022/05/23 13:02:40;;;;;;;5.00;3.72;;;;;;;;;;5077420;28;20023;-74
2022/05/23 13:05:06;;;;;;;5.63;3.92;;;;;;;;;;5080523;28;20535;-75
2022/05/23 13:07:42;;;;;;;8.48;4.22;;;;;;;;;;5073657;28;20025;-73
2022/05/23 13:10:10;;;;;;;4.32;3.90;;;;;;;;;;5073272;28;20032;-75
2022/05/23 13:12:56;;;;;;;4.65;3.58;;;;;;;;;;5078080;28;20019;-76
2022/05/23 13:15:30;;;;;;;6.68;4.03;;;;;;;;;;5065958;28;20672;-75
2022/05/23 13:22:05;;;;;;;4.32;3.80;;;;;;;;;;5081560;28;20031;-76
2022/05/23 13:23:29;;;;;;;9.75;4.30;;;;;;;;;;5068928;28;20700;-75
2022/05/23 13:25:56;;;;;;;5.35;3.92;;;;;;;;;;5080829;28;20462;-74
2022/05/23 13:28:23;;;;;;;7.20;4.97;;;;;;;;;;5081652;28;20256;-75
2022/05/23 13:30:52;;;;;;;8.50;4.90;;;;;;;;;;5083432;28;20020;-74
2022/05/23 13:33:32;;;;;;;6.63;4.90;;;;;;;;;;5081803;28;20453;-75
2022/05/23 13:36:02;;;;;;;5.40;4.68;;;;;;;;;;5082103;28;20640;-74
2022/05/23 13:38:30;;;;;;;5.30;4.20;;;;;;;;;;5083541;28;20038;-75
2022/05/23 13:40:58;;;;;;;5.97;4.10;;;;;;;;;;5084065;28;20558;-75
2022/05/23 13:43:30;;;;;;;6.65;4.13;;;;;;;;;;5079211;28;20528;-75
2022/05/23 13:46:03;;;;;;;6.85;4.72;;;;;;;;;;5075052;28;20466;-75
2022/05/23 13:48:55;;;;;;;12.20;6.88;;;;;;;;;;5080839;28;20044;-75
2022/05/23 13:51:21;;;;;;;9.15;6.38;;;;;;;;;;5079586;28;20093;-75
2022/05/23 13:53:53;;;;;;;8.50;5.82;;;;;;;;;;5079080;28;20028;-75
2022/05/23 13:56:20;;;;;;;7.85;5.10;;;;;;;;;;5082992;28;20031;-75
2022/05/23 13:58:49;;;;;;;6.68;5.28;;;;;;;;;;5083704;28;20387;-74
2022/05/23 14:01:21;;;;;;;7.45;5.10;;;;;;;;;;5081314;28;20023;-75
2022/05/23 14:03:51;;;;;;;7.18;4.88;;;;;;;;;;5065713;28;20025;-75
2022/05/23 14:06:20;;;;;;;7.65;5.20;;;;;;;;;;5066093;28;20483;-74
2022/05/23 14:08:52;;;;;;;5.85;4.68;;;;;;;;;;5082238;28;20107;-76
2022/05/23 14:11:22;;;;;;;6.60;5.30;;;;;;;;;;5078219;28;20020;-75
2022/05/23 14:13:50;;;;;;;8.25;6.05;;;;;;;;;;5072383;28;21024;-75
2022/05/23 14:16:17;;;;;;;7.78;4.90;;;;;;;;;;5078162;28;20107;-78
2022/05/23 14:18:43;;;;;;;5.57;4.20;;;;;;;;;;5070090;28;20024;-76
2022/05/23 14:21:28;;;;;;;6.95;5.03;;;;;;;;;;5083233;28;20028;-77
2022/05/23 14:23:54;;;;;;;6.30;5.15;;;;;;;;;;5077881;28;20044;-79
2022/05/23 14:26:21;;;;;;;7.05;5.88;;;;;;;;;;5065887;28;20028;-78
2022/05/23 14:28:51;;;;;;;7.70;6.90;;;;;;;;;;5067406;28;20214;-82
2022/05/23 14:31:33;;;;;;;13.27;7.28;;;;;;;;;;5081521;28;20154;-77
2022/05/23 14:34:02;;;;;;;;;;;;;;;;;;5073584;28;20660;-77
2022/05/23 14:36:30;;;;;;;6.28;5.00;;;;;;;;;;5062995;28;20453;-77
2022/05/23 14:38:57;;;;;;;5.15;4.28;;;;;;;;;;5072607;28;20031;-79
2022/05/23 14:41:28;;;;;;;4.88;4.32;;;;;;;;;;5081329;28;20024;-77
2022/05/23 14:44:24;;;;;;;8.93;4.40;;;;;;;;;;5080685;28;20031;-78
2022/05/23 14:47:00;;;;;;;4.97;4.00;;;;;;;;;;5070504;28;20093;-79
2022/05/23 14:49:32;;;;;;;6.97;3.97;;;;;;;;;;5067952;28;20034;-78
2022/05/23 14:51:58;;;;;;;6.85;4.10;;;;;;;;;;5082585;28;20103;-77
2022/05/23 15:00:37;;;;;;;6.10;3.90;;;;;;;;;;5083465;28;20150;-77
2022/05/23 15:03:10;;;;;;;4.70;3.42;;;;;;;;;;5085477;28;20035;-78
2022/05/23 15:05:36;;;;;;;4.38;3.47;;;;;;;;;;5076261;28;20099;-79
2022/05/23 15:08:03;;;;;;;6.45;3.80;;;;;;;;;;5078320;28;20946;-76
2022/05/23 15:10:30;;;;;;;5.93;3.83;;;;;;;;;;5065207;28;20024;-80
2022/05/23 15:12:57;;;;;;;6.03;4.38;;;;;;;;;;5062493;28;20989;-78
2022/05/23 15:15:23;;;;;;;4.43;3.72;;;;;;;;;;5059400;28;20456;-79
2022/05/23 15:17:50;;;;;;;7.63;4.20;;;;;;;;;;5057400;28;20086;-77
2022/05/23 15:20:16;;;;;;;5.00;3.92;;;;;;;;;;5062187;28;20106;-79
2022/05/23 15:22:42;;;;;;;5.65;4.18;;;;;;;;;;5079465;28;20032;-76
2022/05/23 15:25:12;;;;;;;4.13;3.65;;;;;;;;;;5070534;28;20098;-75
2022/05/23 15:27:39;;;;;;;4.72;3.88;;;;;;;;;;5059101;28;20499;-79
2022/05/23 15:30:07;;;;;;;5.85;3.75;;;;;;;;;;5060031;28;20105;-75
2022/05/23 15:32:37;;;;;;;7.05;4.18;;;;;;;;;;5076151;28;20604;-75
2022/05/23 15:35:04;;;;;;;4.28;3.85;;;;;;;;;;5067144;28;20556;-78
2022/05/23 15:37:32;;;;;;;6.88;3.78;;;;;;;;;;5076689;28;20049;-76
2022/05/23 15:39:58;;;;;;;4.30;3.88;;;;;;;;;;5078875;28;20650;-79
2022/05/23 15:42:26;;;;;;;6.68;4.20;;;;;;;;;;5079450;28;20024;-76
2022/05/23 15:44:52;;;;;;;5.13;3.72;;;;;;;;;;5078047;28;20241;-77
2022/05/23 15:47:22;;;;;;;7.90;3.65;;;;;;;;;;5076405;28;20028;-74
2022/05/23 15:49:49;;;;;;;7.97;4.13;;;;;;;;;;5062310;28;20469;-74
2022/05/23 15:52:15;;;;;;;4.03;3.45;;;;;;;;;;5063187;28;20100;-76
2022/05/23 15:54:41;;;;;;;5.82;3.88;;;;;;;;;;5061473;28;20024;-74
2022/05/23 15:57:07;;;;;;;4.47;3.47;;;;;;;;;;5062514;28;20024;-78
2022/05/23 15:59:37;;;;;;;5.50;3.75;;;;;;;;;;5062542;28;20045;-75
2022/05/23 16:02:03;;;;;;;4.53;3.88;;;;;;;;;;5079192;28;20036;-75
2022/05/23 16:04:30;;;;;;;6.05;3.75;;;;;;;;;;5082174;28;20032;-75
2022/05/23 16:06:56;;;;;;;5.22;4.00;;;;;;;;;;5082626;28;20077;-78
2022/05/23 16:09:23;;;;;;;6.78;3.83;;;;;;;;;;5082162;28;20091;-75
2022/05/23 16:11:52;;;;;;;5.32;3.53;;;;;;;;;;5082847;28;20172;-75